createdAt,value
2019-05-03T00:00:26.834Z,0.00
2019-05-03T00:01:26.824Z,0.00
2019-05-03T00:02:26.817Z,0.00
2019-05-03T00:03:26.807Z,0.00
2019-05-03T00:04:26.802Z,0.00
2019-05-03T00:05:26.796Z,0.00
2019-05-03T00:06:26.791Z,0.00
2019-05-03T00:07:26.790Z,0.00
2019-05-03T00:08:26.779Z,0.00
2019-05-03T00:09:26.769Z,0.00
2019-05-03T00:10:26.764Z,0.00
2019-05-03T00:11:26.752Z,0.00
2019-05-03T00:12:26.745Z,0.00
2019-05-03T00:13:26.743Z,0.00
2019-05-03T00:14:26.737Z,0.00
2019-05-03T00:15:26.724Z,0.00
2019-05-03T00:16:26.717Z,0.00
2019-05-03T00:17:26.716Z,0.00
2019-05-03T00:18:26.708Z,0.00
2019-05-03T00:19:26.703Z,0.00
2019-05-03T00:20:26.700Z,0.00
2019-05-03T00:21:26.686Z,0.00
2019-05-03T00:22:26.680Z,0.00
2019-05-03T00:23:26.671Z,0.00
2019-05-03T00:24:26.669Z,0.00
2019-05-03T00:25:26.662Z,0.00
2019-05-03T00:26:26.656Z,0.00
2019-05-03T00:27:26.648Z,0.00
2019-05-03T00:28:26.680Z,0.00
2019-05-03T00:29:26.636Z,0.00
2019-05-03T00:30:26.622Z,0.00
2019-05-03T00:31:26.620Z,0.00
2019-05-03T00:32:26.613Z,0.00
2019-05-03T00:33:26.600Z,0.00
2019-05-03T00:34:26.595Z,0.00
2019-05-03T00:35:26.589Z,0.00
2019-05-03T00:36:26.584Z,0.00
2019-05-03T00:37:26.592Z,0.00
2019-05-03T00:38:26.573Z,0.00
2019-05-03T00:39:26.565Z,0.00
2019-05-03T00:40:26.564Z,0.00
2019-05-03T00:41:26.547Z,0.00
2019-05-03T00:42:26.541Z,0.00
2019-05-03T00:43:26.532Z,0.00
2019-05-03T00:44:26.528Z,0.00
2019-05-03T00:45:26.524Z,0.00
2019-05-03T00:46:26.517Z,0.00
2019-05-03T00:47:26.505Z,0.00
2019-05-03T00:48:26.502Z,0.00
2019-05-03T00:49:26.495Z,0.00
2019-05-03T00:50:26.490Z,0.00
2019-05-03T00:51:26.487Z,0.00
2019-05-03T00:52:26.476Z,0.00
2019-05-03T00:53:26.465Z,0.00
2019-05-03T00:54:26.459Z,0.00
2019-05-03T00:55:26.453Z,0.00
2019-05-03T00:56:26.444Z,0.00
2019-05-03T00:57:26.441Z,0.00
2019-05-03T00:58:26.434Z,0.00
2019-05-03T00:59:26.425Z,0.00
2019-05-03T01:00:26.419Z,0.00
2019-05-03T01:01:26.407Z,0.00
2019-05-03T01:02:26.464Z,0.00
2019-05-03T01:03:26.399Z,0.00
2019-05-03T01:04:26.391Z,0.00
2019-05-03T01:05:26.380Z,0.00
2019-05-03T01:06:26.373Z,0.00
2019-05-03T01:07:26.368Z,0.00
2019-05-03T01:08:26.361Z,0.00
2019-05-03T01:09:26.358Z,0.00
2019-05-03T01:10:26.352Z,0.00
2019-05-03T01:11:26.348Z,0.00
2019-05-03T01:12:26.335Z,0.00
2019-05-03T01:13:26.324Z,0.00
2019-05-03T01:14:26.318Z,0.00
2019-05-03T01:15:26.313Z,0.00
2019-05-03T01:16:26.310Z,0.00
2019-05-03T01:17:26.303Z,0.00
2019-05-03T01:18:26.295Z,0.00
2019-05-03T01:19:26.285Z,0.00
2019-05-03T01:20:26.279Z,0.00
2019-05-03T01:21:26.275Z,0.00
2019-05-03T01:22:26.270Z,0.00
2019-05-03T01:23:26.258Z,0.00
2019-05-03T01:24:26.253Z,0.00
2019-05-03T01:25:32.144Z,0.00
2019-05-03T01:26:26.232Z,0.00
2019-05-03T01:27:26.227Z,0.00
2019-05-03T01:28:26.218Z,0.00
2019-05-03T01:29:26.215Z,0.00
2019-05-03T01:30:26.209Z,0.00
2019-05-03T01:31:26.204Z,0.00
2019-05-03T01:32:26.197Z,0.00
2019-05-03T01:33:26.186Z,0.00
2019-05-03T01:34:26.185Z,0.00
2019-05-03T01:35:26.177Z,0.00
2019-05-03T01:36:26.168Z,0.00
2019-05-03T01:37:26.156Z,0.00
2019-05-03T01:38:26.150Z,0.00
2019-05-03T01:39:26.140Z,0.00
2019-05-03T01:40:26.134Z,0.00
2019-05-03T01:41:26.136Z,0.00
2019-05-03T01:42:26.123Z,0.00
2019-05-03T01:43:26.117Z,0.00
2019-05-03T01:44:26.108Z,0.00
2019-05-03T01:45:26.095Z,0.00
2019-05-03T01:46:26.088Z,0.00
2019-05-03T01:47:26.083Z,0.00
2019-05-03T01:48:26.079Z,0.00
2019-05-03T01:49:26.072Z,0.00
2019-05-03T01:50:26.067Z,0.00
2019-05-03T01:51:26.054Z,0.00
2019-05-03T01:52:26.047Z,0.00
2019-05-03T01:53:26.043Z,0.00
2019-05-03T01:54:26.037Z,0.00
2019-05-03T01:55:26.026Z,0.00
2019-05-03T01:56:26.019Z,0.00
2019-05-03T01:57:26.007Z,0.00
2019-05-03T01:58:26.001Z,0.00
2019-05-03T01:59:25.994Z,0.00
2019-05-03T02:00:25.986Z,0.00
2019-05-03T02:01:25.982Z,0.00
2019-05-03T02:02:25.988Z,0.00
2019-05-03T02:03:25.972Z,0.00
2019-05-03T02:04:25.963Z,0.00
2019-05-03T02:05:25.957Z,0.00
2019-05-03T02:06:25.944Z,0.00
2019-05-03T02:07:25.943Z,0.00
2019-05-03T02:08:25.934Z,0.00
2019-05-03T02:09:25.930Z,0.00
2019-05-03T02:10:25.918Z,0.00
2019-05-03T02:11:25.905Z,0.00
2019-05-03T02:12:25.898Z,0.00
2019-05-03T02:13:25.896Z,0.00
2019-05-03T02:14:25.888Z,0.00
2019-05-03T02:15:25.883Z,0.00
2019-05-03T02:16:25.877Z,0.00
2019-05-03T02:17:25.865Z,0.00
2019-05-03T02:18:25.858Z,0.00
2019-05-03T02:19:25.850Z,0.00
2019-05-03T02:20:25.841Z,0.00
2019-05-03T02:21:25.838Z,0.00
2019-05-03T02:22:25.830Z,0.00
2019-05-03T02:23:25.819Z,0.00
2019-05-03T02:24:25.812Z,0.00
2019-05-03T02:25:25.809Z,0.00
2019-05-03T02:26:25.803Z,0.00
2019-05-03T02:27:25.797Z,0.00
2019-05-03T02:28:25.790Z,0.00
2019-05-03T02:29:25.779Z,0.00
2019-05-03T02:30:25.773Z,0.00
2019-05-03T02:31:25.765Z,0.00
2019-05-03T02:32:25.758Z,0.00
2019-05-03T02:33:25.753Z,0.00
2019-05-03T02:34:25.747Z,0.00
2019-05-03T02:35:25.737Z,0.00
2019-05-03T02:36:25.730Z,0.00
2019-05-03T02:37:25.718Z,0.00
2019-05-03T02:38:25.712Z,0.00
2019-05-03T02:39:25.711Z,0.00
2019-05-03T02:40:25.704Z,0.00
2019-05-03T02:41:25.690Z,0.00
2019-05-03T02:42:26.541Z,0.00
2019-05-03T02:43:26.295Z,0.00
2019-05-03T02:44:26.612Z,0.00
2019-05-03T02:45:26.009Z,0.00
2019-05-03T02:46:25.691Z,0.00
2019-05-03T02:47:26.564Z,0.00
2019-05-03T02:48:25.758Z,0.00
2019-05-03T02:49:25.994Z,0.00
2019-05-03T02:50:26.157Z,0.00
2019-05-03T02:51:26.166Z,0.00
2019-05-03T02:52:25.692Z,0.00
2019-05-03T02:53:26.027Z,0.00
2019-05-03T02:54:27.023Z,0.00
2019-05-03T02:55:26.272Z,0.00
2019-05-03T02:56:26.233Z,0.00
2019-05-03T02:57:25.931Z,0.00
2019-05-03T02:58:25.605Z,0.00
2019-05-03T02:59:26.352Z,0.00
2019-05-03T03:00:25.681Z,0.00
2019-05-03T03:01:26.524Z,0.00
2019-05-03T03:02:26.390Z,0.00
2019-05-03T03:03:25.689Z,0.00
2019-05-03T03:04:26.134Z,0.00
2019-05-03T03:05:25.519Z,0.00
2019-05-03T03:06:26.676Z,0.00
2019-05-03T03:07:25.974Z,0.00
2019-05-03T03:08:25.496Z,0.00
2019-05-03T03:09:26.125Z,0.00
2019-05-03T03:10:26.424Z,0.00
2019-05-03T03:11:26.109Z,0.00
2019-05-03T03:12:25.857Z,0.00
2019-05-03T03:13:25.642Z,0.00
2019-05-03T03:14:25.875Z,0.00
2019-05-03T03:15:25.736Z,0.00
2019-05-03T03:16:25.436Z,0.00
2019-05-03T03:17:25.684Z,0.00
2019-05-03T03:18:25.689Z,0.00
2019-05-03T03:19:26.195Z,0.00
2019-05-03T03:20:25.556Z,0.00
2019-05-03T03:21:26.159Z,0.00
2019-05-03T03:22:26.023Z,0.00
2019-05-03T03:23:26.259Z,0.00
2019-05-03T03:24:25.947Z,0.00
2019-05-03T03:25:25.950Z,0.00
2019-05-03T03:26:37.623Z,0.00
2019-05-03T03:27:25.864Z,0.00
2019-05-03T03:28:25.488Z,0.00
2019-05-03T03:29:25.615Z,0.00
2019-05-03T03:30:29.300Z,0.00
2019-05-03T03:31:28.585Z,4.00
2019-05-03T03:32:29.322Z,4.00
2019-05-03T03:33:28.194Z,0.00
2019-05-03T03:34:27.951Z,4.00
2019-05-03T03:35:29.954Z,4.00
2019-05-03T03:36:44.725Z,4.00
2019-05-03T03:37:25.989Z,4.00
2019-05-03T03:38:26.139Z,4.00
2019-05-03T03:39:26.017Z,8.00
2019-05-03T03:40:25.577Z,8.00
2019-05-03T03:41:25.246Z,12.00
2019-05-03T03:42:25.332Z,8.00
2019-05-03T03:43:25.922Z,12.00
2019-05-03T03:44:25.760Z,12.00
2019-05-03T03:45:25.546Z,16.00
2019-05-03T03:46:25.382Z,16.00
2019-05-03T03:47:27.283Z,20.00
2019-05-03T03:48:26.584Z,24.00
2019-05-03T03:49:26.254Z,28.00
2019-05-03T03:50:25.974Z,32.00
2019-05-03T03:51:26.315Z,36.00
2019-05-03T03:52:25.599Z,44.00
2019-05-03T03:53:26.452Z,44.00
2019-05-03T03:54:26.062Z,56.00
2019-05-03T03:55:26.431Z,64.00
2019-05-03T03:56:25.542Z,76.00
2019-05-03T03:57:25.387Z,84.00
2019-05-03T03:58:26.978Z,96.00
2019-05-03T03:59:26.765Z,108.00
2019-05-03T04:00:25.778Z,116.00
2019-05-03T04:01:26.789Z,124.00
2019-05-03T04:02:26.539Z,132.00
2019-05-03T04:03:25.999Z,140.00
2019-05-03T04:04:25.953Z,148.00
2019-05-03T04:05:25.617Z,156.00
2019-05-03T04:06:26.908Z,152.00
2019-05-03T04:07:26.110Z,140.00
2019-05-03T04:08:25.282Z,132.00
2019-05-03T04:09:25.717Z,124.00
2019-05-03T04:10:26.156Z,124.00
2019-05-03T04:11:25.906Z,128.00
2019-05-03T04:12:26.460Z,144.00
2019-05-03T04:13:25.660Z,164.00
2019-05-03T04:14:25.462Z,188.00
2019-05-03T04:15:26.083Z,212.00
2019-05-03T04:16:25.901Z,244.00
2019-05-03T04:17:26.146Z,276.00
2019-05-03T04:18:25.566Z,316.00
2019-05-03T04:19:25.239Z,344.00
2019-05-03T04:20:25.697Z,368.00
2019-05-03T04:21:25.691Z,380.00
2019-05-03T04:22:25.537Z,360.00
2019-05-03T04:23:26.415Z,304.00
2019-05-03T04:24:25.872Z,208.00
2019-05-03T04:25:26.170Z,120.00
2019-05-03T04:26:29.600Z,80.00
2019-05-03T04:27:27.606Z,68.00
2019-05-03T04:28:25.566Z,64.00
2019-05-03T04:29:25.517Z,76.00
2019-05-03T04:30:25.691Z,132.00
2019-05-03T04:31:26.178Z,164.00
2019-05-03T04:32:28.811Z,148.00
2019-05-03T04:33:26.970Z,144.00
2019-05-03T04:34:26.366Z,152.00
2019-05-03T04:35:26.661Z,168.00
2019-05-03T04:36:26.176Z,184.00
2019-05-03T04:37:26.589Z,220.00
2019-05-03T04:38:25.741Z,288.00
2019-05-03T04:39:25.611Z,344.00
2019-05-03T04:40:26.106Z,408.00
2019-05-03T04:41:26.844Z,500.00
2019-05-03T04:42:25.542Z,556.00
2019-05-03T04:43:26.478Z,592.00
2019-05-03T04:44:26.005Z,604.00
2019-05-03T04:45:25.517Z,632.00
2019-05-03T04:46:25.987Z,644.00
2019-05-03T04:47:26.446Z,540.00
2019-05-03T04:48:25.329Z,576.00
2019-05-03T04:49:26.228Z,552.00
2019-05-03T04:50:25.472Z,544.00
2019-05-03T04:51:25.843Z,620.00
2019-05-03T04:52:25.953Z,728.00
2019-05-03T04:53:25.975Z,872.00
2019-05-03T04:54:25.389Z,1140.00
2019-05-03T04:55:26.724Z,1336.00
2019-05-03T04:56:26.047Z,1348.00
2019-05-03T04:57:36.713Z,1256.00
2019-05-03T04:58:25.847Z,1240.00
2019-05-03T04:59:25.495Z,972.00
2019-05-03T05:00:25.627Z,804.00
2019-05-03T05:01:26.104Z,868.00
2019-05-03T05:02:26.308Z,1052.00
2019-05-03T05:03:26.583Z,1152.00
2019-05-03T05:04:25.414Z,1076.00
2019-05-03T05:05:26.152Z,1120.00
2019-05-03T05:06:25.815Z,1176.00
2019-05-03T05:07:26.060Z,1296.00
2019-05-03T05:08:25.318Z,1408.00
2019-05-03T05:09:25.885Z,1532.00
2019-05-03T05:10:25.997Z,1580.00
2019-05-03T05:11:26.356Z,1648.00
2019-05-03T05:12:25.155Z,1732.00
2019-05-03T05:13:25.110Z,1728.00
2019-05-03T05:14:25.873Z,1644.00
2019-05-03T05:15:26.550Z,1496.00
2019-05-03T05:16:25.174Z,1392.00
2019-05-03T05:17:26.312Z,1320.00
2019-05-03T05:18:26.380Z,1216.00
2019-05-03T05:19:25.406Z,1116.00
2019-05-03T05:20:24.854Z,1300.00
2019-05-03T05:21:25.267Z,1440.00
2019-05-03T05:22:24.735Z,1488.00
2019-05-03T05:23:25.096Z,1468.00
2019-05-03T05:24:25.632Z,1564.00
2019-05-03T05:25:25.118Z,2004.00
2019-05-03T05:26:24.836Z,2240.00
2019-05-03T05:27:25.661Z,2428.00
2019-05-03T05:28:24.987Z,2572.00
2019-05-03T05:29:25.338Z,2440.00
2019-05-03T05:30:25.233Z,2428.00
2019-05-03T05:31:25.461Z,2648.00
2019-05-03T05:32:24.736Z,2524.00
2019-05-03T05:33:25.254Z,2436.00
2019-05-03T05:34:24.596Z,2728.00
2019-05-03T05:35:24.843Z,2820.00
2019-05-03T05:36:24.457Z,2580.00
2019-05-03T05:37:25.039Z,2716.00
2019-05-03T05:38:25.597Z,3016.00
2019-05-03T05:39:24.564Z,3140.00
2019-05-03T05:40:24.618Z,3032.00
2019-05-03T05:41:24.540Z,3068.00
2019-05-03T05:42:25.077Z,3136.00
2019-05-03T05:43:25.534Z,3276.00
2019-05-03T05:44:24.831Z,3204.00
2019-05-03T05:45:24.675Z,3952.00
2019-05-03T05:46:24.907Z,3576.00
2019-05-03T05:47:25.405Z,3524.00
2019-05-03T05:48:24.668Z,3880.00
2019-05-03T05:49:25.978Z,4120.00
2019-05-03T05:50:25.386Z,4460.00
2019-05-03T05:51:24.844Z,5000.00
2019-05-03T05:52:24.595Z,5236.00
2019-05-03T05:53:25.384Z,5424.00
2019-05-03T05:54:24.588Z,5640.00
2019-05-03T05:55:25.290Z,5880.00
2019-05-03T05:56:25.097Z,6000.00
2019-05-03T05:57:25.601Z,5728.00
2019-05-03T05:58:25.627Z,5916.00
2019-05-03T05:59:24.826Z,6348.00
2019-05-03T06:00:25.671Z,6900.00
2019-05-03T06:01:25.011Z,7636.00
2019-05-03T06:02:25.369Z,8792.00
2019-05-03T06:03:25.283Z,8804.00
2019-05-03T06:04:24.593Z,8956.00
2019-05-03T06:05:25.179Z,7852.00
2019-05-03T06:06:24.487Z,8168.00
2019-05-03T06:07:24.848Z,9056.00
2019-05-03T06:08:25.111Z,6920.00
2019-05-03T06:09:25.633Z,6620.00
2019-05-03T06:10:24.883Z,6436.00
2019-05-03T06:11:25.824Z,6664.00
2019-05-03T06:12:25.067Z,6312.00
2019-05-03T06:13:24.078Z,6028.00
2019-05-03T06:14:24.508Z,5656.00
2019-05-03T06:15:25.015Z,5348.00
2019-05-03T06:16:24.516Z,5504.00
2019-05-03T06:17:24.521Z,6236.00
2019-05-03T06:18:25.057Z,7676.00
2019-05-03T06:19:25.302Z,8152.00
2019-05-03T06:20:24.577Z,8192.00
2019-05-03T06:21:25.097Z,9504.00
2019-05-03T06:22:25.699Z,11252.00
2019-05-03T06:23:24.799Z,12184.00
2019-05-03T06:24:24.922Z,28832.00
2019-05-03T06:25:26.572Z,31232.00
2019-05-03T06:26:25.302Z,31136.00
2019-05-03T06:27:24.435Z,30848.00
2019-05-03T06:28:25.179Z,30272.00
2019-05-03T06:29:24.794Z,31168.00
2019-05-03T06:30:24.837Z,11156.00
2019-05-03T06:31:25.288Z,30016.00
2019-05-03T06:32:25.401Z,31648.00
2019-05-03T06:33:24.472Z,31808.00
2019-05-03T06:34:25.191Z,31840.00
2019-05-03T06:35:24.421Z,32096.00
2019-05-03T06:36:24.392Z,32128.00
2019-05-03T06:37:25.116Z,31904.00
2019-05-03T06:38:24.443Z,31840.00
2019-05-03T06:39:24.894Z,32352.00
2019-05-03T06:40:25.276Z,32256.00
2019-05-03T06:41:25.052Z,30112.00
2019-05-03T06:42:25.493Z,29664.00
2019-05-03T06:43:24.463Z,30368.00
2019-05-03T06:44:28.262Z,33216.00
2019-05-03T06:45:25.118Z,35264.00
2019-05-03T06:46:30.253Z,34944.00
2019-05-03T06:47:25.337Z,21792.00
2019-05-03T06:48:28.019Z,38240.00
2019-05-03T06:49:25.504Z,37024.00
2019-05-03T06:50:25.230Z,36608.00
2019-05-03T06:51:24.842Z,32704.00
2019-05-03T06:52:25.488Z,28288.00
2019-05-03T06:53:25.402Z,29632.00
2019-05-03T06:54:28.316Z,37440.00
2019-05-03T06:55:24.784Z,30944.00
2019-05-03T06:56:28.900Z,19264.00
2019-05-03T06:57:25.368Z,39328.00
2019-05-03T06:58:31.251Z,35776.00
2019-05-03T06:59:24.996Z,20256.00
2019-05-03T07:00:24.801Z,28576.00
2019-05-03T07:01:25.308Z,40384.00
2019-05-03T07:02:25.141Z,18848.00
2019-05-03T07:03:25.152Z,14012.00
2019-05-03T07:04:24.595Z,16640.00
2019-05-03T07:05:25.104Z,37920.00
2019-05-03T07:06:36.726Z,39968.00
2019-05-03T07:07:27.778Z,39744.00
2019-05-03T07:08:25.365Z,32768.00
2019-05-03T07:09:25.035Z,18272.00
2019-05-03T07:10:24.938Z,35744.00
2019-05-03T07:11:24.732Z,15800.00
2019-05-03T07:12:25.019Z,15696.00
2019-05-03T07:13:25.454Z,19168.00
2019-05-03T07:14:24.678Z,43712.00
2019-05-03T07:15:25.173Z,26464.00
2019-05-03T07:16:25.296Z,21728.00
2019-05-03T07:17:24.813Z,16160.00
2019-05-03T07:18:24.768Z,14384.00
2019-05-03T07:19:24.988Z,24928.00
2019-05-03T07:20:25.461Z,17792.00
2019-05-03T07:21:24.734Z,21568.00
2019-05-03T07:22:24.493Z,38880.00
2019-05-03T07:23:24.573Z,19008.00
2019-05-03T07:24:24.874Z,15568.00
2019-05-03T07:25:25.594Z,11348.00
2019-05-03T07:26:25.448Z,13936.00
2019-05-03T07:27:24.760Z,49152.00
2019-05-03T07:28:24.812Z,54624.00
2019-05-03T07:29:25.514Z,34560.00
2019-05-03T07:30:24.783Z,66816.00
2019-05-03T07:31:25.482Z,64032.00
2019-05-03T07:32:24.698Z,54272.00
2019-05-03T07:33:25.422Z,50720.00
2019-05-03T07:34:24.813Z,52032.00
2019-05-03T07:35:25.188Z,54464.00
2019-05-03T07:36:28.094Z,56416.00
2019-05-03T07:37:24.651Z,57056.00
2019-05-03T07:38:24.848Z,61856.00
2019-05-03T07:39:24.629Z,66656.00
2019-05-03T07:40:25.298Z,70176.00
2019-05-03T07:41:26.548Z,72512.00
2019-05-03T07:42:25.636Z,75232.00
2019-05-03T07:43:24.576Z,81024.00
2019-05-03T07:44:25.552Z,91264.00
2019-05-03T07:45:25.394Z,96608.00
2019-05-03T07:46:24.744Z,92288.00
2019-05-03T07:47:24.768Z,82560.00
2019-05-03T07:48:25.516Z,75712.00
2019-05-03T07:49:24.971Z,73312.00
2019-05-03T07:50:25.850Z,73760.00
2019-05-03T07:51:24.894Z,62912.00
2019-05-03T07:52:25.865Z,90080.00
2019-05-03T07:53:25.259Z,82368.00
2019-05-03T07:54:24.889Z,75040.00
2019-05-03T07:55:24.980Z,75072.00
2019-05-03T07:56:25.469Z,69536.00
2019-05-03T07:57:25.443Z,62688.00
2019-05-03T07:58:25.307Z,65408.00
2019-05-03T07:59:25.065Z,66816.00
2019-05-03T08:00:25.386Z,65664.00
2019-05-03T08:01:25.195Z,28032.00
2019-05-03T08:02:27.265Z,15488.00
2019-05-03T08:03:24.470Z,12628.00
2019-05-03T08:04:25.558Z,56128.00
2019-05-03T08:05:24.737Z,66144.00
2019-05-03T08:06:24.802Z,65792.00
2019-05-03T08:07:25.804Z,65088.00
2019-05-03T08:08:25.078Z,62432.00
2019-05-03T08:09:24.681Z,60992.00
2019-05-03T08:10:25.611Z,50784.00
2019-05-03T08:11:24.906Z,34912.00
2019-05-03T08:12:24.773Z,11616.00
2019-05-03T08:13:25.327Z,56672.00
2019-05-03T08:14:25.210Z,10228.00
2019-05-03T08:15:24.655Z,58016.00
2019-05-03T08:16:25.202Z,52096.00
2019-05-03T08:17:25.551Z,50528.00
2019-05-03T08:18:25.749Z,51968.00
2019-05-03T08:19:26.988Z,49888.00
2019-05-03T08:20:24.903Z,56992.00
2019-05-03T08:21:25.201Z,58848.00
2019-05-03T08:22:25.570Z,62240.00
2019-05-03T08:23:29.954Z,27264.00
2019-05-03T08:24:25.317Z,53760.00
2019-05-03T08:25:24.983Z,20608.00
2019-05-03T08:26:25.725Z,17856.00
2019-05-03T08:27:25.138Z,14972.00
2019-05-03T08:28:24.737Z,28288.00
2019-05-03T08:29:24.954Z,63776.00
2019-05-03T08:30:25.051Z,56288.00
2019-05-03T08:31:26.483Z,9004.00
2019-05-03T08:32:24.661Z,6416.00
2019-05-03T08:33:25.016Z,5992.00
2019-05-03T08:34:25.750Z,7112.00
2019-05-03T08:35:24.648Z,13228.00
2019-05-03T08:36:24.889Z,11256.00
2019-05-03T08:37:24.667Z,53440.00
2019-05-03T08:38:25.782Z,54496.00
2019-05-03T08:39:25.344Z,56896.00
2019-05-03T08:40:24.721Z,57312.00
2019-05-03T08:41:24.798Z,17184.00
2019-05-03T08:42:25.374Z,12924.00
2019-05-03T08:43:25.511Z,55104.00
2019-05-03T08:44:25.110Z,48512.00
2019-05-03T08:45:25.607Z,54496.00
2019-05-03T08:46:25.309Z,56096.00
2019-05-03T08:47:24.930Z,55424.00
2019-05-03T08:48:25.102Z,61248.00
2019-05-03T08:49:25.499Z,60512.00
2019-05-03T08:50:25.651Z,59104.00
2019-05-03T08:51:25.135Z,57696.00
2019-05-03T08:52:24.984Z,58752.00
2019-05-03T08:53:25.632Z,58848.00
2019-05-03T08:54:25.529Z,53600.00
2019-05-03T08:55:25.089Z,54432.00
2019-05-03T08:56:24.822Z,60064.00
2019-05-03T08:57:25.407Z,56384.00
2019-05-03T08:58:25.582Z,54304.00
2019-05-03T08:59:29.694Z,67456.00
2019-05-03T09:00:25.034Z,66880.00
2019-05-03T09:01:25.296Z,66144.00
2019-05-03T09:02:25.865Z,56800.00
2019-05-03T09:03:25.065Z,60928.00
2019-05-03T09:04:35.994Z,66336.00
2019-05-03T09:05:25.174Z,65792.00
2019-05-03T09:06:24.953Z,24288.00
2019-05-03T09:07:25.459Z,23072.00
2019-05-03T09:08:25.041Z,20672.00
2019-05-03T09:09:25.516Z,19840.00
2019-05-03T09:10:25.059Z,17888.00
2019-05-03T09:11:31.800Z,23392.00
2019-05-03T09:12:25.324Z,24192.00
2019-05-03T09:13:25.260Z,38752.00
2019-05-03T09:14:38.495Z,41472.00
2019-05-03T09:15:25.060Z,70656.00
2019-05-03T09:16:25.271Z,86304.00
2019-05-03T09:17:25.090Z,72736.00
2019-05-03T09:18:25.837Z,41280.00
2019-05-03T09:19:25.395Z,14868.00
2019-05-03T09:20:25.157Z,11084.00
2019-05-03T09:21:25.624Z,10028.00
2019-05-03T09:22:25.629Z,8344.00
2019-05-03T09:23:26.043Z,8472.00
2019-05-03T09:24:25.168Z,8516.00
2019-05-03T09:25:25.172Z,7440.00
2019-05-03T09:26:29.262Z,7016.00
2019-05-03T09:27:25.254Z,6788.00
2019-05-03T09:28:28.812Z,6908.00
2019-05-03T09:29:25.560Z,6996.00
2019-05-03T09:30:25.253Z,6668.00
2019-05-03T09:31:25.234Z,5648.00
2019-05-03T09:32:25.656Z,4892.00
2019-05-03T09:33:25.244Z,4348.00
2019-05-03T09:34:25.746Z,4380.00
2019-05-03T09:35:30.543Z,5072.00
2019-05-03T09:36:25.584Z,5404.00
2019-05-03T09:37:25.270Z,5224.00
2019-05-03T09:38:25.728Z,4896.00
2019-05-03T09:39:25.278Z,4576.00
2019-05-03T09:40:25.285Z,3984.00
2019-05-03T09:41:25.791Z,3564.00
2019-05-03T09:42:25.305Z,3684.00
2019-05-03T09:43:25.304Z,4640.00
2019-05-03T09:44:25.306Z,5700.00
2019-05-03T09:45:25.315Z,7444.00
2019-05-03T09:46:26.489Z,9720.00
2019-05-03T09:47:25.408Z,11400.00
2019-05-03T09:48:25.644Z,15020.00
2019-05-03T09:49:25.484Z,58560.00
2019-05-03T09:50:25.324Z,40704.00
2019-05-03T09:51:25.551Z,68768.00
2019-05-03T09:52:25.328Z,23296.00
2019-05-03T09:53:25.665Z,40896.00
2019-05-03T09:54:25.596Z,94752.00
2019-05-03T09:55:25.461Z,21344.00
2019-05-03T09:56:25.924Z,45248.00
2019-05-03T09:57:25.348Z,16160.00
2019-05-03T09:58:26.382Z,24320.00
2019-05-03T09:59:25.558Z,21440.00
2019-05-03T10:00:25.353Z,46720.00
2019-05-03T10:01:25.615Z,15240.00
2019-05-03T10:02:25.371Z,11052.00
2019-05-03T10:03:25.369Z,9128.00
2019-05-03T10:04:25.616Z,8208.00
2019-05-03T10:05:25.684Z,7936.00
2019-05-03T10:06:25.375Z,9068.00
2019-05-03T10:07:25.919Z,12160.00
2019-05-03T10:08:25.605Z,58944.00
2019-05-03T10:09:26.350Z,59872.00
2019-05-03T10:10:25.388Z,62336.00
2019-05-03T10:11:25.528Z,59232.00
2019-05-03T10:12:25.708Z,44768.00
2019-05-03T10:13:27.150Z,59712.00
2019-05-03T10:14:25.407Z,59936.00
2019-05-03T10:15:26.059Z,56672.00
2019-05-03T10:16:25.416Z,48320.00
2019-05-03T10:17:25.416Z,47712.00
2019-05-03T10:18:25.659Z,54432.00
2019-05-03T10:19:37.112Z,54816.00
2019-05-03T10:20:25.426Z,54272.00
2019-05-03T10:21:25.824Z,48576.00
2019-05-03T10:22:25.441Z,52704.00
2019-05-03T10:23:25.440Z,49760.00
2019-05-03T10:24:25.448Z,55008.00
2019-05-03T10:25:25.456Z,53472.00
2019-05-03T10:26:25.461Z,62464.00
2019-05-03T10:27:25.471Z,63104.00
2019-05-03T10:28:25.477Z,61792.00
2019-05-03T10:29:25.478Z,59488.00
2019-05-03T10:30:25.485Z,59776.00
2019-05-03T10:31:25.494Z,58208.00
2019-05-03T10:32:25.500Z,52960.00
2019-05-03T10:33:26.175Z,21280.00
2019-05-03T10:34:25.520Z,16192.00
2019-05-03T10:35:25.527Z,14916.00
2019-05-03T10:36:25.536Z,13492.00
2019-05-03T10:37:25.539Z,11768.00
2019-05-03T10:38:25.549Z,10324.00
2019-05-03T10:39:26.337Z,9328.00
2019-05-03T10:40:25.569Z,8828.00
2019-05-03T10:41:25.574Z,8884.00
2019-05-03T10:42:25.580Z,8648.00
2019-05-03T10:43:25.590Z,8604.00
2019-05-03T10:44:25.596Z,8772.00
2019-05-03T10:45:27.951Z,8692.00
2019-05-03T10:46:25.616Z,9760.00
2019-05-03T10:47:25.635Z,12340.00
2019-05-03T10:48:25.624Z,8608.00
2019-05-03T10:49:25.625Z,7504.00
2019-05-03T10:50:25.630Z,7440.00
2019-05-03T10:51:25.638Z,7124.00
2019-05-03T10:52:25.851Z,12228.00
2019-05-03T10:53:25.651Z,9452.00
2019-05-03T10:54:25.656Z,10104.00
2019-05-03T10:55:25.662Z,10176.00
2019-05-03T10:56:26.811Z,12196.00
2019-05-03T10:57:25.671Z,15584.00
2019-05-03T10:58:25.675Z,11656.00
2019-05-03T10:59:25.675Z,14068.00
2019-05-03T11:00:48.361Z,23584.00
2019-05-03T11:01:25.678Z,50560.00
2019-05-03T11:02:25.681Z,79232.00
2019-05-03T11:03:25.684Z,43168.00
2019-05-03T11:04:25.692Z,18752.00
2019-05-03T11:05:25.696Z,21856.00
2019-05-03T11:06:25.701Z,68032.00
2019-05-03T11:07:25.839Z,13980.00
2019-05-03T11:08:25.717Z,25248.00
2019-05-03T11:09:26.082Z,52352.00
2019-05-03T11:10:25.713Z,46976.00
2019-05-03T11:11:25.970Z,46816.00
2019-05-03T11:12:25.726Z,15304.00
2019-05-03T11:13:26.437Z,23296.00
2019-05-03T11:14:25.729Z,17344.00
2019-05-03T11:15:26.007Z,14528.00
2019-05-03T11:16:25.734Z,14084.00
2019-05-03T11:17:25.780Z,17056.00
2019-05-03T11:18:25.746Z,61696.00
2019-05-03T11:19:25.753Z,17696.00
2019-05-03T11:20:29.083Z,13220.00
2019-05-03T11:21:28.884Z,12240.00
2019-05-03T11:22:25.758Z,14956.00
2019-05-03T11:23:25.763Z,13488.00
2019-05-03T11:24:27.544Z,14028.00
2019-05-03T11:25:25.773Z,14096.00
2019-05-03T11:26:25.777Z,13276.00
2019-05-03T11:27:25.777Z,12748.00
2019-05-03T11:28:25.780Z,12612.00
2019-05-03T11:29:25.786Z,12980.00
2019-05-03T11:30:25.790Z,12764.00
2019-05-03T11:31:25.790Z,13580.00
2019-05-03T11:32:25.794Z,13236.00
2019-05-03T11:33:25.798Z,11680.00
2019-05-03T11:34:25.794Z,11832.00
2019-05-03T11:35:25.806Z,12400.00
2019-05-03T11:36:25.800Z,12796.00
2019-05-03T11:37:25.808Z,12496.00
2019-05-03T11:38:25.809Z,14564.00
2019-05-03T11:39:25.815Z,16116.00
2019-05-03T11:40:25.818Z,17280.00
2019-05-03T11:41:32.169Z,17152.00
2019-05-03T11:42:25.820Z,15980.00
2019-05-03T11:43:25.823Z,15776.00
2019-05-03T11:44:25.826Z,15840.00
2019-05-03T11:45:25.825Z,12884.00
2019-05-03T11:46:25.826Z,9504.00
2019-05-03T11:47:27.725Z,7880.00
2019-05-03T11:48:25.827Z,6876.00
2019-05-03T11:49:25.833Z,6556.00
2019-05-03T11:50:25.834Z,6568.00
2019-05-03T11:51:25.835Z,7012.00
2019-05-03T11:52:25.961Z,8752.00
2019-05-03T11:53:25.835Z,9020.00
2019-05-03T11:54:25.836Z,9604.00
2019-05-03T11:55:26.859Z,9048.00
2019-05-03T11:56:25.843Z,8388.00
2019-05-03T11:57:26.352Z,7760.00
2019-05-03T11:58:27.318Z,7756.00
2019-05-03T11:59:26.591Z,9796.00
2019-05-03T12:00:26.816Z,11096.00
2019-05-03T12:01:25.889Z,12436.00
2019-05-03T12:02:25.851Z,11000.00
2019-05-03T12:03:25.850Z,10460.00
2019-05-03T12:04:25.852Z,10548.00
2019-05-03T12:05:25.854Z,11720.00
2019-05-03T12:06:25.846Z,13212.00
2019-05-03T12:07:38.545Z,13652.00
2019-05-03T12:08:25.848Z,12220.00
2019-05-03T12:09:25.865Z,11960.00
2019-05-03T12:10:51.001Z,11740.00
2019-05-03T12:11:25.857Z,10756.00
2019-05-03T12:12:25.853Z,9328.00
2019-05-03T12:13:25.851Z,8056.00
2019-05-03T12:14:25.859Z,7548.00
2019-05-03T12:15:25.854Z,7704.00
2019-05-03T12:17:06.844Z,9376.00
2019-05-03T12:17:29.009Z,10300.00
2019-05-03T12:18:26.398Z,10948.00
2019-05-03T12:19:30.817Z,11800.00